Schedule Details


Flight Number: CTN4405
Departure: Frankfurt/main (EDDF) at 10:25
Arrival: Pula (LDPL) at 11:55
Route: NOMBO UZ738 MUN UM867 VAROB DCT VEKEN Y66 KANIN DCT GIRDA

Weather Information
EDDF 242050Z 07005KT CAVOK 26/15 Q1019 NOSIG
LDPL 242100Z 03007KT CAVOK 23/18 Q1020 BECMG 06008KT
Schedule Frequency

Route Map